Latest Weather Observations for Sheffield

IDT60801

Issued at 12:31 pm EST Thursday 26 May 2016 (issued every 30 minutes, with the page automatically refreshed every 10 minutes)

About weather observations | Map of weather stations | Latest weather observations for TAS | Other Formats
Station Details ID: 091291 Name: SHEFFIELD SCHOOL FARM Lat: -41.39 Lon: 146.32 Height: 294.2 m
Data from the previous 72 hours. | See also: Recent months at Sheffield
Date/Time
EST
Temp
°C
App
Temp
°C
Dew
Point
Rel
Hum
%
Delta-T
°C
Wind Press
QNH
hPa
Press
MSL
hPa
Rain
since 9 am
mm
Dir
 
Spd
km/h
Gust
km/h
Spd
kts
Gust
kts
26/12:30pm 10.2 8.4 7.1 81 1.5 WSW 6 9 3 5 999.8 1000.0 0.0
26/12:00pm 9.5 9.1 8.1 91 0.7 CALM 0 0 0 0 1000.1 1000.3 0.0
26/11:30am 9.2 8.6 7.6 90 0.8 CALM 0 0 0 0 1000.4 1000.6 0.0
26/11:00am 8.6 7.9 7.1 90 0.7 CALM 0 0 0 0 1000.7 1000.9 0.0
26/10:30am 8.6 8.2 8.3 98 0.1 CALM 0 0 0 0 1000.9 1001.1 0.0
26/10:00am 8.3 7.9 8.2 99 0.0 CALM 0 4 0 2 1001.1 1001.3 0.0
26/09:30am 8.0 7.5 7.9 99 0.0 CALM 0 0 0 0 1001.0 1001.2 0.0
26/09:00am 7.4 6.4 7.3 99 0.0 WSW 2 2 1 1 1000.8 1001.0 4.2
26/08:30am 7.3 6.3 7.2 99 0.0 WSW 2 4 1 2 1000.8 1001.0 4.2
26/08:00am 7.3 6.7 7.2 99 0.0 CALM 0 0 0 0 1001.0 1001.2 4.2
26/07:30am 7.2 6.5 7.1 99 0.0 CALM 0 4 0 2 1000.8 1001.0 4.2
26/07:00am 7.9 7.0 7.8 99 0.0 NW 2 4 1 2 1000.7 1000.9 4.2
26/06:30am 8.2 7.4 8.1 99 0.0 NNW 2 6 1 3 1000.9 1001.1 4.2
26/06:00am 8.6 7.9 8.5 99 0.0 SE 2 6 1 3 1000.8 1001.0 4.2
26/05:30am 9.0 8.0 8.9 99 0.0 SW 4 6 2 3 1001.0 1001.2 4.2
26/05:00am 9.1 8.9 9.0 99 0.1 CALM 0 2 0 1 1001.1 1001.3 4.2
26/04:30am 9.4 8.1 9.3 99 0.1 SE 6 6 3 3 1001.3 1001.4 4.2
26/04:00am 9.4 9.3 9.3 99 0.1 CALM 0 2 0 1 1001.4 1001.5 4.2
26/03:30am 8.9 7.5 8.8 99 0.0 SSE 6 6 3 3 1001.4 1001.5 4.2
26/03:00am 9.6 8.8 9.5 99 0.1 S 4 6 2 3 1001.8 1002.0 4.0
26/02:30am 9.6 9.5 9.5 99 0.1 CALM 0 0 0 0 1002.1 1002.3 4.0
26/02:00am 10.1 10.2 10.0 99 0.1 CALM 0 0 0 0 1002.3 1002.5 3.6
26/01:30am 10.1 9.4 10.0 99 0.1 NNW 4 6 2 3 1002.7 1002.9 2.6
26/01:00am 10.0 8.9 9.9 99 0.1 NNW 6 9 3 5 1003.0 1003.2 2.0
26/12:30am 10.0 8.7 9.9 99 0.1 NW 7 9 4 5 1003.4 1003.6 1.8
26/12:00am 10.1 8.8 10.0 99 0.1 NNW 7 11 4 6 1003.8 1004.0 1.6
 
Date/Time
EST
Temp
°C
App
Temp
°C
Dew
Point
Rel
Hum
%
Delta-T
°C
Wind Press
QNH
hPa
Press
MSL
hPa
Rain
since 9 am
mm
Dir
 
Spd
km/h
Gust
km/h
Spd
kts
Gust
kts
25/11:30pm 9.8 8.1 9.7 99 0.1 NNW 9 15 5 8 1004.3 1004.6 1.6
25/11:00pm 9.5 8.1 9.4 99 0.1 NNW 7 11 4 6 1004.6 1004.9 1.2
25/10:30pm 9.1 7.7 8.8 98 0.1 NNW 6 9 3 5 1005.2 1005.4 1.2
25/10:00pm 9.0 7.0 8.7 98 0.1 NNW 9 13 5 7 1005.6 1005.8 0.4
25/09:30pm 9.0 6.9 8.4 96 0.3 NW 9 13 5 7 1005.9 1006.1 0.0
25/09:00pm 8.9 8.1 8.0 94 0.4 NNW 2 9 1 5 1005.9 1006.1 0.0
25/08:30pm 8.2 6.4 7.1 93 0.5 ESE 6 7 3 4 1005.9 1006.1 0.0
25/08:00pm 8.3 7.6 7.1 92 0.6 CALM 0 0 0 0 1005.9 1006.1 0.0
25/07:30pm 8.6 6.9 7.4 92 0.6 SE 6 7 3 4 1006.1 1006.3 0.0
25/07:00pm 8.0 6.0 6.9 93 0.5 SE 7 9 4 5 1006.1 1006.3 0.0
25/06:30pm 8.0 6.5 6.6 91 0.7 ESE 4 6 2 3 1006.3 1006.5 0.0
25/06:00pm 8.0 6.1 6.6 91 0.7 SE 6 7 3 4 1006.6 1006.8 0.0
25/05:30pm 7.8 6.2 6.3 90 0.7 SE 4 6 2 3 1006.7 1006.9 0.0
25/05:00pm 7.7 6.0 6.0 89 0.8 S 4 6 2 3 1006.9 1007.1 0.0
25/04:30pm 8.2 6.6 6.5 89 0.8 SSE 4 6 2 3 1007.2 1007.5 0.0
25/04:00pm 8.2 6.6 6.3 88 0.9 SE 4 4 2 2 1007.4 1007.7 0.0
25/03:30pm 8.2 6.9 6.2 87 0.9 SE 2 4 1 2 1007.8 1008.1 0.0
25/03:00pm 8.0 5.9 5.8 86 1.0 ESE 6 6 3 3 1007.7 1008.0 0.0
25/02:30pm 7.8 5.6 5.4 85 1.1 ESE 6 7 3 4 1007.9 1008.2 0.0
25/02:00pm 7.6 6.1 4.9 83 1.2 SE 2 4 1 2 1008.6 1008.8 0.0
25/01:30pm 7.2 5.7 4.9 85 1.0 SSW 2 6 1 3 1008.9 1009.1 0.0
25/01:00pm 6.9 4.8 4.0 82 1.3 ESE 4 6 2 3 1009.2 1009.4 0.0
25/12:30pm 7.1 5.8 4.2 82 1.3 CALM 0 4 0 2 1009.8 1010.0 0.0
25/12:00pm 6.3 4.9 3.6 83 1.2 CALM 0 0 0 0 1010.2 1010.5 0.0
25/11:30am 6.2 4.4 3.4 82 1.2 SSE 2 4 1 2 1010.8 1011.1 0.0
25/11:00am 5.5 3.2 3.0 84 1.1 SE 4 6 2 3 1011.0 1011.3 0.0
25/10:30am 5.5 4.0 2.8 83 1.1 CALM 0 2 0 1 1011.6 1011.9 0.0
25/10:00am 4.4 2.7 2.1 85 0.9 CALM 0 0 0 0 1011.8 1012.1 0.0
25/09:30am 3.8 2.1 2.0 88 0.7 CALM 0 4 0 2 1012.5 1012.7 0.0
25/09:00am 1.5 -1.5 0.6 94 0.3 N 6 9 3 5 1012.9 1013.2 0.0
25/08:30am 0.7 -2.1 -0.2 94 0.3 WSW 4 7 2 4 1012.8 1013.0 0.0
25/08:00am 0.7 -2.1 -0.2 94 0.3 E 4 6 2 3 1012.8 1013.0 0.0
25/07:30am 0.0 -3.3 -1.1 92 0.4 WNW 6 7 3 4 1013.2 1013.5 0.0
25/07:00am 0.2 -3.6 -0.8 93 0.4 W 9 11 5 6 1012.9 1013.2 0.0
25/06:30am 1.0 -1.4 0.0 93 0.4 SSE 2 4 1 2 1012.5 1012.7 0.0
25/06:00am 1.3 -0.6 0.4 94 0.3 CALM 0 0 0 0 1012.6 1012.8 0.0
25/05:30am 1.1 -2.0 0.4 95 0.3 WNW 6 7 3 4 1013.3 1013.6 0.0
25/05:00am 1.1 -1.2 0.1 93 0.4 ENE 2 9 1 5 1013.2 1013.5 0.0
25/04:30am 1.0 -1.0 0.0 93 0.4 CALM 0 2 0 1 1013.7 1014.0 0.0
25/04:00am 0.9 -2.3 -0.2 92 0.4 NW 6 6 3 3 1013.9 1014.2 0.0
25/03:30am 1.3 -1.9 -0.5 88 0.7 SW 6 6 3 3 1013.7 1014.0 0.0
25/03:00am 2.2 -1.1 0.1 86 0.8 W 7 7 4 4 1013.7 1014.0 0.0
25/02:30am 2.4 0.2 0.9 90 0.6 SSW 2 6 1 3 1013.7 1014.0 0.0
25/02:00am 2.2 0.4 0.9 91 0.5 CALM 0 2 0 1 1014.0 1014.3 0.0
25/01:30am 2.6 0.7 0.8 88 0.7 CALM 0 0 0 0 1014.0 1014.3 0.0
25/01:00am 2.4 0.6 0.9 90 0.6 CALM 0 4 0 2 1014.4 1014.7 0.0
25/12:30am 2.9 0.7 0.8 86 0.8 WNW 2 4 1 2 1014.6 1014.9 0.0
25/12:00am 2.7 -0.6 0.3 84 0.9 W 7 9 4 5 1015.0 1015.3 0.0
 
Date/Time
EST
Temp
°C
App
Temp
°C
Dew
Point
Rel
Hum
%
Delta-T
°C
Wind Press
QNH
hPa
Press
MSL
hPa
Rain
since 9 am
mm
Dir
 
Spd
km/h
Gust
km/h
Spd
kts
Gust
kts
24/11:30pm 3.3 1.4 0.7 83 1.0 CALM 0 0 0 0 1014.9 1015.2 0.0
24/11:00pm 4.7 2.8 0.7 75 1.6 CALM 0 4 0 2 1014.8 1015.1 0.0
24/10:30pm 4.9 2.4 1.4 78 1.4 N 4 6 2 3 1015.0 1015.3 0.0
24/10:00pm 4.7 1.7 0.7 75 1.6 NNW 6 7 3 4 1015.2 1015.5 0.0
24/09:30pm 5.3 2.7 0.9 73 1.8 NNW 4 9 2 5 1015.6 1015.8 0.0
24/09:00pm 6.7 2.4 1.0 67 2.3 SW 13 26 7 14 1015.8 1016.1 0.0
24/08:30pm 7.0 3.1 1.3 67 2.3 W 11 15 6 8 1015.9 1016.2 0.0
24/08:00pm 6.2 3.4 2.1 75 1.7 NNW 6 9 3 5 1015.9 1016.2 0.0
24/07:30pm 6.0 2.6 1.9 75 1.7 WSW 9 13 5 7 1015.6 1015.8 0.0
24/07:00pm 6.5 2.5 2.6 76 1.6 SW 13 15 7 8 1015.6 1015.8 0.0
24/06:30pm 6.1 3.2 1.6 73 1.8 NNW 6 15 3 8 1015.3 1015.6 0.0
24/06:00pm 8.3 3.0 1.9 64 2.7 SW 19 24 10 13 1015.1 1015.4 0.0
24/05:30pm 8.0 3.8 1.8 65 2.6 SW 13 19 7 10 1015.0 1015.3 0.0
24/05:00pm 8.9 4.8 2.5 64 2.7 SW 13 15 7 8 1014.8 1015.1 0.0
24/04:30pm 9.6 6.3 2.2 60 3.2 SW 9 13 5 7 1014.7 1015.0 0.0
24/04:00pm 10.2 6.6 2.8 60 3.2 SW 11 17 6 9 1014.6 1014.9 0.0
24/03:30pm 10.9 5.7 2.5 56 3.7 SW 19 28 10 15 1014.1 1014.4 0.0
24/03:00pm 11.3 6.1 2.6 55 3.8 SW 19 32 10 17 1013.7 1014.0 0.0
24/02:30pm 11.3 5.8 1.8 52 4.1 SSW 20 41 11 22 1013.7 1014.0 0.0
24/02:00pm 11.0 5.1 1.8 53 4.0 SW 22 37 12 20 1013.8 1014.1 0.0
24/01:30pm 11.1 5.3 2.2 54 3.9 SW 22 41 12 22 1013.6 1013.9 0.0
24/01:00pm 11.4 6.2 2.7 55 3.8 SW 19 32 10 17 1013.6 1013.9 0.0
24/12:30pm 11.2 5.9 3.0 57 3.6 SW 20 32 11 17 1013.8 1014.1 0.0
24/12:00pm 11.2 6.0 3.5 59 3.5 SW 20 32 11 17 1013.7 1014.0 0.0
24/11:30am 10.9 5.2 3.0 58 3.5 SW 22 37 12 20 1014.0 1014.3 0.0
24/11:00am 10.7 7.7 4.0 63 3.0 WSW 9 22 5 12 1014.3 1014.6 0.0
24/10:30am 10.0 6.6 4.0 66 2.7 NW 11 20 6 11 1014.5 1014.8 0.0
24/10:00am 10.2 7.6 3.3 62 3.1 NNW 6 11 3 6 1014.4 1014.7 0.0
24/09:30am 9.3 6.3 4.1 70 2.3 NNW 9 15 5 8 1014.3 1014.6 0.0
24/09:00am 7.9 5.3 3.2 72 2.0 WNW 6 9 3 5 1014.3 1014.6 1.4
24/08:30am 6.6 4.7 2.9 77 1.6 NNW 2 6 1 3 1014.1 1014.4 1.4
24/08:00am 5.6 3.6 2.3 79 1.4 WNW 2 6 1 3 1013.9 1014.2 1.4
24/07:30am 4.3 2.6 2.0 85 0.9 CALM 0 2 0 1 1013.5 1013.8 1.4
24/07:00am 4.7 2.7 2.4 85 0.9 N 2 6 1 3 1013.1 1013.4 1.4
24/06:30am 4.1 1.2 1.6 84 1.0 NNW 6 7 3 4 1012.7 1012.9 1.4
24/06:00am 4.1 1.6 1.6 84 1.0 NNW 4 7 2 4 1012.5 1012.7 1.4
24/05:30am 5.0 2.9 2.0 81 1.2 N 2 7 1 4 1012.3 1012.5 1.4
24/05:00am 5.1 2.3 1.9 80 1.3 NE 6 9 3 5 1012.1 1012.3 1.4
24/04:30am 4.5 2.4 1.7 82 1.1 ENE 2 6 1 3 1011.8 1012.1 1.4
24/04:00am 4.4 2.7 1.6 82 1.1 CALM 0 0 0 0 1011.6 1011.9 1.4
24/03:30am 4.8 1.0 1.7 80 1.3 WNW 11 20 6 11 1011.5 1011.8 1.4
24/03:00am 4.8 0.6 1.5 79 1.3 WNW 13 19 7 10 1011.5 1011.8 1.4
24/02:30am 5.8 2.0 1.7 75 1.7 WNW 11 17 6 9 1011.8 1012.1 1.4
24/02:00am 6.2 2.4 1.9 74 1.8 WNW 11 15 6 8 1012.0 1012.2 1.4
24/01:30am 6.5 1.6 1.8 72 1.9 W 17 24 9 13 1012.0 1012.2 1.4
24/01:00am 6.5 1.0 2.0 73 1.9 WNW 20 28 11 15 1011.8 1012.1 1.4
24/12:30am 7.2 3.4 1.5 67 2.3 W 11 20 6 11 1011.2 1011.5 1.4
24/12:00am 7.0 2.0 1.1 66 2.4 WNW 17 30 9 16 1011.3 1011.6 1.4
 
Date/Time
EST
Temp
°C
App
Temp
°C
Dew
Point
Rel
Hum
%
Delta-T
°C
Wind Press
QNH
hPa
Press
MSL
hPa
Rain
since 9 am
mm
Dir
 
Spd
km/h
Gust
km/h
Spd
kts
Gust
kts
23/11:30pm 7.4 0.2 1.0 64 2.6 SW 28 43 15 23 1011.0 1011.3 1.4
23/11:06pm 7.6 -0.8 1.5 65 2.5 WSW 35 54 19 29 1011.1 1011.4 1.4
23/11:00pm 7.4 -0.5 1.3 65 2.5 WSW 32 44 17 24 1011.2 1011.5 1.4
23/10:30pm 7.5 0.0 1.4 65 2.5 WSW 30 48 16 26 1011.2 1011.5 1.4
23/10:12pm 7.4 -0.1 1.3 65 2.5 WSW 30 50 16 27 1011.2 1011.5 1.4
23/10:00pm 7.0 0.3 1.3 67 2.3 WSW 26 44 14 24 1011.4 1011.7 1.4
23/09:30pm 7.1 1.7 1.2 66 2.4 W 19 32 10 17 1011.6 1011.9 1.4
23/09:00pm 6.4 2.8 0.7 67 2.3 W 9 15 5 8 1011.3 1011.6 1.4
23/08:30pm 6.8 2.1 1.1 67 2.3 W 15 32 8 17 1011.2 1011.5 1.4
23/08:00pm 6.5 1.5 1.4 70 2.1 W 17 28 9 15 1010.9 1011.2 1.4
23/07:30pm 6.4 0.8 1.1 69 2.1 W 20 32 11 17 1010.6 1010.9 1.4
23/07:00pm 6.0 1.4 1.3 72 1.9 W 15 30 8 16 1010.4 1010.7 1.4
23/06:30pm 6.3 0.7 1.4 71 2.0 W 20 28 11 15 1010.0 1010.2 1.4
23/06:00pm 6.5 0.2 1.6 71 2.0 W 24 35 13 19 1009.8 1010.0 1.4
23/05:30pm 6.2 1.3 1.7 73 1.8 W 17 28 9 15 1009.2 1009.4 1.4
23/05:00pm 6.1 -1.2 2.2 76 1.6 WSW 30 44 16 24 1008.9 1009.1 1.4
23/04:30pm 7.1 0.3 3.2 76 1.7 WSW 28 43 15 23 1008.6 1008.8 1.0
23/04:00pm 8.0 1.2 2.9 70 2.2 W 28 44 15 24 1008.1 1008.4 0.8
23/03:42pm 8.2 0.1 3.3 71 2.1 W 35 56 19 30 1007.3 1007.6 0.8
23/03:30pm 8.1 0.5 3.8 74 1.9 W 33 50 18 27 1007.5 1007.8 0.8
23/03:06pm 7.8 0.1 3.3 73 1.9 W 33 54 18 29 1006.9 1007.1 0.8
23/03:00pm 8.1 0.4 3.6 73 2.0 W 33 50 18 27 1006.9 1007.1 0.8
23/02:30pm 8.3 0.3 3.6 72 2.1 WSW 35 63 19 34 1006.8 1007.0 0.8
23/02:04pm 8.5 0.5 3.8 72 2.1 W 35 57 19 31 1006.3 1006.5 0.8
23/02:00pm 8.6 0.7 4.2 74 2.0 W 35 52 19 28 1006.5 1006.7 0.8
23/01:37pm 9.7 2.3 4.1 68 2.5 W 32 52 17 28 1005.8 1006.0 0.8
23/01:30pm 9.7 2.4 4.5 70 2.4 W 32 50 17 27 1005.9 1006.1 0.8
23/01:00pm 8.1 -0.4 5.0 81 1.4 WSW 39 61 21 33 1006.0 1006.2 0.6
23/12:56pm 9.3 1.9 5.1 75 1.9 W 33 61 18 33 1005.8 1006.0 0.0

Other Formats:

Comma delimited format used in spreadsheet applications
http://www.bom.gov.au/fwo/IDT60801/IDT60801.94955.axf

JavaScript Object Notation format (JSON) in row-major order
http://www.bom.gov.au/fwo/IDT60801/IDT60801.94955.json